AirNav   Everest Fuels
 
 930 users online  

LL28 SD Aero Airport
Capron, Illinois, USA

GOING TO CAPRON?


FAA INFORMATION EFFECTIVE 21 MAY 2020

Location

FAA Identifier: LL28
Lat/Long: 42-25-58.0000N 088-43-02.0000W
42-25.966667N 088-43.033333W
42.4327778,-88.7172222
(estimated)
Elevation: 930 ft. / 283 m (estimated)
Variation: 02W (2000)
From city: 2 miles NE of CAPRON, IL
Time zone: UTC -5 (UTC -6 during Standard Time)
Zip code: 60033

Airport Operations

Airport use: Private use. Permission required prior to landing
Activation date: 11/2002
Control tower: no
ARTCC: CHICAGO CENTER
FSS: KANKAKEE FLIGHT SERVICE STATION
Attendance: UNATNDD
Segmented circle: no

Airport Communications

WX AWOS-3 at JVL (18 nm NW): PHONE 608-758-1723

Nearby radio navigation aids

VOR radial/distance  VOR name  Freq  Var
JVLr111/18.7JANESVILLE VOR/DME114.3003E
RFDr059/24.7ROCKFORD VOR/DME110.8001E
OBKr292/36.3NORTHBROOK VOR/DME113.0002W
DPAr331/36.4DUPAGE VOR/DME108.4002E

 
NDB name  Hdg/Dist  Freq  Var  ID
LAKE LAWN201/16.940402WLVV .-.. ...- ...-

Airport Services

Runway Information

Runway 18/36

Dimensions: 1600 x 70 ft. / 488 x 21 m
Surface: turf, in good condition
RUNWAY 18  RUNWAY 36
Traffic pattern: leftleft
Obstructions: 15 ft. road, 325 ft. from runwaynone

Airport Ownership and Management from official FAA records

Ownership: Privately-owned
Owner: SUSAN DACY
P.O. BOX 182
HARVARD, IL 60033
Phone 815-943-0705
Manager: SUSAN DACY
P.O. BOX 182
HARVARD, IL 60033
Phone 815-943-0705
815-621-0848

Airport Operational Statistics

Aircraft based on the field: 2
Single engine airplanes: 2
    

Additional Remarks

FOR CD CTC CHICAGO ARTCC AT 630-906-8921.

Instrument Procedures

There are no published instrument procedures at LL28.

Some nearby airports with instrument procedures:

C77 - Poplar Grove Airport (8 nm SW)
44C - Beloit Airport (12 nm W)
10C - Galt Field Airport (15 nm E)
C02 - Grand Geneva Resort Airport (18 nm NE)
KJVL - Southern Wisconsin Regional Airport (18 nm NW)
 
Loc | Ops | Rwys | IFR | FBO | Links
Com | Nav | Svcs | Stats | Notes
Area around LL28 (SD Aero Airport)
 
Road maps at: MapQuest Bing Google
 
Aerial photo
No photo
 
Sectional chart

 
Airport distance calculator
Flying to SD Aero Airport? Find the distance to fly.

From to LL28

Sunrise and sunset
Times for 02-Jun-2020
 Local
(UTC-5)
 Zulu
(UTC)
Morning civil twilight04:4609:46
Sunrise05:2010:20
Sunset20:2601:26
Evening civil twilight21:0002:00

Current date and time
Zulu (UTC)  03-Jun-2020 02:40:32
Local (UTC-5)  02-Jun-2020 21:40:32
 
METAR
KJVL 
17nm NW 
030155Z AUTO 25012G15KT 10SM CLR 29/17 A2981 RMK AO2
KRFD 
22nm SW 
030154Z 24008KT 10SM SCT200 BKN250 29/18 A2983 RMK AO2 SLP094 T02890178
KBUU 
24nm NE 
030215Z AUTO 00000KT 10SM CLR 29/19 A2980 RMK AO2 T02880189
K57C 
27nm NE 
030215Z AUTO 25003KT 10SM SCT090 27/19 A2979 RMK AO2 LTG DSNT NW THRU NE T02730194
KDKB 
30nm S 
030215Z AUTO 24011KT 10SM CLR 28/18 A2985 RMK AO2 LTG DSNT N T02830182
TAF
KRFD 
22nm SW 
030202Z 0302/0324 22012KT P6SM BKN250 FM030245 33015G25KT P6SM VCSH SCT045 BKN100 FM030345 34010KT P6SM -SHRA SCT045 BKN060 TEMPO 0304/0305 4SM TSRA BKN040CB FM030800 VRB06KT P6SM SCT025 BKN050 FM031300 33008KT P6SM SCT025 BKN050 FM032000 35006KT P6SM SCT250
NOTAMs
Click for the latest NOTAMs
NOTAMs are issued by the DoD/FAA and will open in a separate window not controlled by AirNav.

 

 
 

Would you like to see your business listed on this page?

 If your business provides an interesting product or service to pilots, flight crews, aircraft, or users of the SD Aero Airport, you should consider listing it here.  To start the listing process, click on the button below
 
Add a business
 

Other Pages about SD Aero Airport

Update a link
 
Copyright © AirNav, LLC. All rights reserved. Privacy Policy  Contact